EST,Max TemperatureF,Mean TemperatureF,Min TemperatureF,Max Dew PointF,MeanDew PointF,Min DewpointF,Max Humidity, Mean Humidity, Min Humidity, Max Sea Level PressureIn, Mean Sea Level PressureIn, Min Sea Level PressureIn, Max VisibilityMiles, Mean VisibilityMiles, Min VisibilityMiles, Max Wind SpeedMPH, Mean Wind SpeedMPH, Max Gust SpeedMPH,PrecipitationIn, CloudCover, Events, WindDirDegrees
2012-12-1,22,12,2,17,7,-2,91,71,51,30.76,30.67,30.56,10,9,2,9,0,12,T,4,Snow,100
2012-12-2,45,33,20,43,29,17,100,92,84,30.57,30.24,29.89,10,3,0,10,1,20,0.35,8,Fog-Rain-Snow,115
2012-12-3,44,40,35,40,36,30,100,87,73,30.32,30.05,29.88,10,9,2,16,5,21,0.03,8,Rain,301
2012-12-4,47,39,31,46,36,29,100,88,76,30.34,30.16,29.93,10,6,2,9,3,16,0.00,8,,165
2012-12-5,50,40,30,49,38,16,100,77,54,30.01,29.83,29.73,10,6,2,24,10,36,0.38,8,Rain,273
2012-12-6,31,24,17,17,14,11,92,68,43,30.32,30.23,30.04,10,9,3,23,8,30,0.00,0,,298
2012-12-7,36,27,17,29,22,14,92,74,56,30.31,30.16,30.05,10,10,7,9,2,15,0.00,3,,170
2012-12-8,36,30,23,34,30,20,96,89,82,30.09,29.93,29.82,10,5,1,6,0,8,T,6,Snow,130
2012-12-9,40,33,25,34,26,19,100,76,52,30.37,30.14,29.86,10,9,2,21,7,31,0.00,4,,288
2012-12-10,32,27,21,31,21,18,92,84,75,30.29,29.87,29.49,10,3,0,14,4,18,0.50,8,Fog-Rain-Snow,51
2012-12-11,36,28,19,32,23,12,96,80,63,30.13,29.78,29.49,10,10,10,23,8,32,T,4,,291
2012-12-12,31,21,11,19,13,9,92,73,53,30.39,30.30,30.15,10,10,4,13,4,18,0.00,1,,295
2012-12-13,33,20,7,23,14,5,92,74,56,30.46,30.36,30.25,10,7,2,12,2,15,0.00,1,,15
2012-12-14,37,28,18,29,24,14,92,76,59,30.22,30.05,29.96,10,10,3,17,4,24,0.00,6,,293
2012-12-15,28,15,1,12,3,-3,86,65,43,30.43,30.35,30.16,10,10,6,17,5,22,0.00,0,,324
2012-12-16,20,7,-6,7,0,-10,87,66,45,30.43,30.37,30.30,10,9,6,6,1,8,0.00,2,,349
2012-12-17,30,23,15,28,21,7,92,80,67,30.31,30.17,30.07,10,6,1,7,4,10,0.10,8,Snow,53
2012-12-18,35,33,30,32,31,28,96,93,89,30.07,29.80,29.58,10,3,0,12,7,17,0.37,8,Fog-Rain-Snow,63
2012-12-19,34,33,31,32,31,28,96,91,85,30.05,29.77,29.57,9,2,1,13,7,20,0.21,8,Rain-Snow,23
2012-12-20,35,32,28,29,27,24,92,84,75,30.22,30.16,30.05,10,8,1,10,2,14,0.02,7,Snow,39
2012-12-21,40,34,28,39,31,25,100,93,85,30.13,29.67,29.13,10,7,1,28,10,37,0.55,8,Rain-Snow,97
2012-12-22,43,34,24,40,32,16,100,84,68,29.43,29.24,29.12,10,8,1,20,7,26,0.02,7,Rain-Snow,237
2012-12-23,24,18,11,14,9,6,84,70,56,29.77,29.63,29.45,10,10,7,23,11,33,T,4,Snow,288
2012-12-24,21,17,13,10,7,2,84,68,52,30.07,29.93,29.76,10,10,10,17,8,26,0.00,3,,295
2012-12-25,24,18,11,11,8,5,80,68,55,30.23,30.11,30.06,10,10,9,13,5,20,0.00,1,,298
2012-12-26,25,18,10,11,8,4,88,72,55,30.40,30.33,30.24,10,9,5,10,3,13,0.00,0,,304
2012-12-27,26,20,13,23,18,9,92,86,80,30.25,29.85,29.58,10,2,0,24,12,33,0.43,7,Fog-Snow,37
2012-12-28,29,25,20,21,17,12,88,76,63,29.92,29.74,29.58,10,8,1,22,12,31,0.04,6,Snow,320
2012-12-29,26,23,19,18,15,12,84,76,68,29.99,29.86,29.60,10,10,8,14,6,21,T,4,Snow,344
2012-12-30,24,16,8,18,13,-2,84,74,63,29.67,29.49,29.41,10,3,0,32,17,46,0.04,6,Fog-Snow,321
2012-12-31,24,16,7,17,7,-3,81,65,49,29.79,29.74,29.61,10,9,2,31,11,47,T,3,Snow,287